Time;durP1;ratioP1;P1;durP2;ratioP2;P2;SDS_P1;SDS_P2;PMS_P1;PMS_P2;Temp;Humidity;BMP_temperature;BMP_pressure;BME280_temperature;BME280_humidity;BME280_pressure;Samples;Min_cycle;Max_cycle;Signal;HPM_P1;HPM_P2
2020/12/26 00:01:21;;;;;;;;;43.50;37.50;;;;;3.18;91.91;99694.50;4937513;29;10155;-53
2020/12/26 00:03:49;;;;;;;;;54.25;40.50;;;;;3.27;91.27;99694.22;4939250;29;8876;-53
2020/12/26 00:06:17;;;;;;;;;50.75;43.25;;;;;3.06;91.63;99694.91;4938158;29;8856;-54
2020/12/26 00:08:45;;;;;;;;;45.25;37.25;;;;;3.10;91.95;99708.94;4944448;29;8861;-54
2020/12/26 00:11:14;;;;;;;;;52.75;38.25;;;;;3.06;92.36;99705.50;4945622;28;8838;-56
2020/12/26 00:13:41;;;;;;;;;54.75;44.00;;;;;3.25;91.65;99711.97;4941233;29;8877;-54
2020/12/26 00:16:12;;;;;;;;;56.75;39.50;;;;;2.94;92.21;99713.81;4936330;29;8864;-54
2020/12/26 00:18:41;;;;;;;;;47.25;37.00;;;;;3.03;92.31;99710.91;4936414;29;8864;-55
2020/12/26 00:21:13;;;;;;;;;45.25;38.50;;;;;3.19;92.13;99712.19;4936438;29;8913;-56
2020/12/26 00:23:40;;;;;;;;;42.75;36.75;;;;;3.11;92.29;99714.19;4928782;29;8860;-56
2020/12/26 00:26:07;;;;;;;;;44.50;37.75;;;;;3.12;92.38;99715.91;4936104;29;8880;-53
2020/12/26 00:28:35;;;;;;;;;52.25;40.75;;;;;3.12;92.21;99715.91;4932472;29;8867;-55
2020/12/26 00:31:03;;;;;;;;;52.75;39.00;;;;;3.24;91.59;99717.34;4936414;29;8853;-55
2020/12/26 00:33:33;;;;;;;;;53.00;35.25;;;;;3.05;92.47;99717.00;4940052;28;9650;-54
2020/12/26 00:36:02;;;;;;;;;42.50;33.75;;;;;3.17;92.47;99719.31;4935209;29;8856;-55
2020/12/26 00:38:29;;;;;;;;;34.50;28.50;;;;;3.19;92.26;99725.44;4936332;29;8865;-56
2020/12/26 00:40:55;;;;;;;;;35.75;26.75;;;;;3.17;92.39;99729.91;4921445;29;8866;-54
2020/12/26 00:43:22;;;;;;;;;36.75;31.75;;;;;3.19;91.92;99738.69;4939011;29;8848;-53
2020/12/26 00:45:49;;;;;;;;;40.00;30.50;;;;;3.20;92.39;99740.44;4938161;28;8877;-55
2020/12/26 00:48:16;;;;;;;;;40.75;28.75;;;;;3.18;92.71;99750.22;4937117;29;8885;-54
2020/12/26 00:50:43;;;;;;;;;43.75;30.25;;;;;3.37;91.72;99763.81;4928731;29;8828;-53
2020/12/26 00:53:10;;;;;;;;;42.25;36.00;;;;;3.41;92.02;99760.13;4943037;28;8846;-54
2020/12/26 00:55:37;;;;;;;;;49.50;38.00;;;;;3.42;91.50;99777.81;4936289;29;8935;-57
2020/12/26 00:58:04;;;;;;;;;46.50;38.25;;;;;3.55;91.74;99782.72;4936197;29;8847;-55
2020/12/26 01:00:31;;;;;;;;;48.75;34.00;;;;;3.60;91.37;99786.97;4934575;29;8879;-55
2020/12/26 01:02:58;;;;;;;;;37.25;29.00;;;;;3.46;92.02;99783.88;4952161;28;8886;-56
2020/12/26 01:05:25;;;;;;;;;49.50;36.50;;;;;3.36;91.10;99782.41;4935741;29;8861;-54
2020/12/26 01:07:51;;;;;;;;;44.75;37.25;;;;;3.51;90.73;99796.09;4935718;29;8848;-55
2020/12/26 01:10:18;;;;;;;;;43.00;35.50;;;;;3.47;90.72;99801.53;4935916;29;8959;-55
2020/12/26 01:12:45;;;;;;;;;46.25;35.50;;;;;3.56;90.83;99803.06;4939759;29;9003;-56
2020/12/26 01:15:12;;;;;;;;;44.00;37.00;;;;;3.50;90.01;99807.63;4935249;29;8947;-57
2020/12/26 01:17:42;;;;;;;;;46.00;38.50;;;;;3.29;90.29;99802.94;4935273;29;8988;-54
2020/12/26 01:20:10;;;;;;;;;52.50;41.50;;;;;3.37;89.65;99795.66;4941727;28;8976;-56
2020/12/26 01:22:37;;;;;;;;;50.75;43.25;;;;;3.27;90.39;99800.34;4941811;28;8890;-54
2020/12/26 01:25:05;;;;;;;;;47.75;34.75;;;;;3.24;90.10;99797.81;4936085;28;8974;-56
2020/12/26 01:27:36;;;;;;;;;51.75;43.00;;;;;3.26;89.65;99793.28;4924240;28;8955;-55
2020/12/26 01:30:04;;;;;;;;;48.75;37.75;;;;;3.06;89.54;99801.00;4924767;28;8867;-56
2020/12/26 01:32:32;;;;;;;;;42.25;29.50;;;;;3.22;89.14;99796.13;4942442;28;8852;-55
2020/12/26 01:35:00;;;;;;;;;41.00;32.25;;;;;3.30;88.26;99792.31;4963207;28;8862;-54
2020/12/26 01:37:28;;;;;;;;;34.25;30.50;;;;;3.15;88.38;99794.53;4945852;28;8862;-56
2020/12/26 01:39:56;;;;;;;;;36.00;29.50;;;;;3.20;88.22;99803.25;4943208;29;8857;-53
2020/12/26 01:42:23;;;;;;;;;34.75;28.50;;;;;3.12;88.50;99806.13;4948009;28;8850;-57
2020/12/26 01:44:50;;;;;;;;;40.00;25.50;;;;;2.94;88.25;99804.84;4935526;28;8892;-51
2020/12/26 01:47:18;;;;;;;;;34.75;28.00;;;;;2.99;87.62;99802.94;4943086;28;8862;-54
2020/12/26 01:49:45;;;;;;;;;28.50;24.25;;;;;3.00;87.34;99801.16;4945234;28;8866;-55
2020/12/26 01:52:15;;;;;;;;;24.75;20.50;;;;;3.02;87.41;99804.63;4922374;29;9631;-56
2020/12/26 01:54:42;;;;;;;;;32.50;26.50;;;;;2.96;87.63;99800.38;4940901;28;8850;-55
2020/12/26 01:57:09;;;;;;;;;30.00;24.00;;;;;2.96;87.18;99810.13;4942737;28;8936;-55
2020/12/26 01:59:36;;;;;;;;;33.75;23.50;;;;;3.00;86.83;99811.75;4938461;29;8993;-55
2020/12/26 02:02:09;;;;;;;;;28.50;23.00;;;;;2.85;86.36;99808.66;4935986;28;8878;-55
2020/12/26 02:04:36;;;;;;;;;26.75;15.75;;;;;2.78;86.94;99801.78;4938133;29;8851;-56
2020/12/26 02:07:05;;;;;;;;;28.75;24.50;;;;;2.75;87.65;99801.00;4934800;29;9570;-53
2020/12/26 02:09:33;;;;;;;;;34.00;24.50;;;;;2.84;86.22;99800.72;4958879;28;8841;-55
2020/12/26 02:12:00;;;;;;;;;26.25;19.50;;;;;2.82;86.94;99791.97;4947554;29;8880;-54
2020/12/26 02:14:27;;;;;;;;;27.50;20.25;;;;;2.61;87.23;99793.44;4934754;29;8856;-54
2020/12/26 02:16:54;;;;;;;;;27.75;22.00;;;;;2.74;85.92;99794.81;4943506;28;8888;-55
2020/12/26 02:19:24;;;;;;;;;33.75;23.50;;;;;2.56;86.57;99801.50;4944505;28;8874;-55
2020/12/26 02:21:51;;;;;;;;;30.00;23.25;;;;;2.61;86.60;99793.44;4943251;28;8877;-52
2020/12/26 02:24:19;;;;;;;;;31.75;21.75;;;;;2.55;86.45;99809.47;4935271;29;8872;-56
2020/12/26 02:26:46;;;;;;;;;34.75;25.25;;;;;2.52;87.47;99793.66;4956876;28;8903;-55
2020/12/26 02:29:13;;;;;;;;;26.75;22.75;;;;;2.38;87.08;99792.25;4936469;29;8853;-55
2020/12/26 02:31:39;;;;;;;;;22.00;19.25;;;;;2.46;86.72;99783.25;4941845;29;8881;-55
2020/12/26 02:34:06;;;;;;;;;27.00;24.75;;;;;2.20;86.87;99795.38;4941231;28;8874;-54
2020/12/26 02:36:35;;;;;;;;;21.25;19.00;;;;;2.26;87.07;99792.56;4936286;29;8881;-55
2020/12/26 02:39:07;;;;;;;;;28.75;21.00;;;;;2.24;86.93;99804.09;4943056;28;8869;-55
2020/12/26 02:41:34;;;;;;;;;24.00;22.75;;;;;2.47;86.70;99806.16;4937493;29;8959;-53
2020/12/26 02:44:01;;;;;;;;;20.00;18.25;;;;;2.25;86.54;99809.38;4941130;28;8860;-56
2020/12/26 02:46:28;;;;;;;;;30.25;21.50;;;;;2.20;85.87;99803.34;4943863;28;8897;-54
2020/12/26 02:48:55;;;;;;;;;26.25;19.00;;;;;2.34;86.86;99811.81;4935163;28;8856;-53
2020/12/26 02:51:22;;;;;;;;;32.00;19.75;;;;;2.23;86.31;99813.84;4946057;29;8955;-55
2020/12/26 02:53:49;;;;;;;;;23.75;16.25;;;;;2.24;86.82;99805.00;4939184;28;8857;-56
2020/12/26 02:56:18;;;;;;;;;23.75;13.00;;;;;2.15;86.91;99797.28;4937759;28;8906;-52
2020/12/26 02:58:46;;;;;;;;;16.00;14.50;;;;;2.31;86.63;99801.28;4936023;28;8889;-55
2020/12/26 03:01:13;;;;;;;;;8.00;7.25;;;;;1.94;87.37;99802.19;4940242;29;8975;-53
2020/12/26 03:03:40;;;;;;;;;20.00;17.00;;;;;1.88;88.13;99802.34;4942005;28;8858;-55
2020/12/26 03:06:07;;;;;;;;;35.25;26.00;;;;;1.84;87.97;99798.03;4942346;28;8967;-54
2020/12/26 03:08:34;;;;;;;;;36.75;26.00;;;;;1.96;86.25;99788.94;4942708;28;8854;-54
2020/12/26 03:11:01;;;;;;;;;29.25;20.50;;;;;1.91;87.00;99780.22;4937699;28;8880;-54
2020/12/26 03:13:29;;;;;;;;;19.00;15.00;;;;;2.07;87.54;99770.13;4938029;28;8858;-52
2020/12/26 03:15:58;;;;;;;;;25.50;19.00;;;;;1.96;88.86;99768.63;4944310;29;8890;-52
2020/12/26 03:18:25;;;;;;;;;20.50;12.25;;;;;1.83;88.15;99767.19;4933911;29;8861;-53
2020/12/26 03:20:54;;;;;;;;;18.25;13.25;;;;;1.95;87.93;99771.31;4939537;29;8864;-54
2020/12/26 03:23:20;;;;;;;;;24.25;13.50;;;;;2.17;87.85;99787.53;4933357;29;8888;-52
2020/12/26 03:25:47;;;;;;;;;24.75;18.75;;;;;2.44;86.22;99798.31;4933730;29;8899;-51
2020/12/26 03:28:14;;;;;;;;;31.00;23.25;;;;;2.44;84.95;99808.91;4933248;29;8857;-49
2020/12/26 03:30:41;;;;;;;;;17.75;13.25;;;;;2.28;84.19;99816.38;4932825;29;8994;-52
2020/12/26 03:33:08;;;;;;;;;23.00;14.00;;;;;2.32;84.57;99818.91;4934056;29;8972;-54
2020/12/26 03:35:35;;;;;;;;;23.00;17.50;;;;;2.32;85.17;99824.22;4934102;29;8865;-55
2020/12/26 03:38:01;;;;;;;;;21.00;13.50;;;;;2.06;86.10;99822.22;4933592;29;8879;-52
2020/12/26 03:40:29;;;;;;;;;23.25;14.25;;;;;1.98;85.32;99825.06;4933385;29;8888;-51
2020/12/26 03:42:56;;;;;;;;;22.75;11.00;;;;;2.02;85.79;99824.97;4933635;29;8865;-52
2020/12/26 03:45:22;;;;;;;;;24.00;15.25;;;;;1.77;86.10;99832.66;4934643;29;8875;-50
2020/12/26 03:47:49;;;;;;;;;25.25;18.50;;;;;1.85;86.55;99838.63;4933447;29;8864;-52
2020/12/26 03:50:16;;;;;;;;;15.50;11.00;;;;;2.00;85.66;99837.38;4932774;29;8871;-51
2020/12/26 03:52:43;;;;;;;;;13.00;12.75;;;;;2.02;86.27;99846.16;4934766;29;8857;-51
2020/12/26 03:55:10;;;;;;;;;16.25;11.50;;;;;1.94;87.57;99841.91;4932995;29;8962;-53
2020/12/26 03:57:36;;;;;;;;;20.25;12.75;;;;;1.80;88.11;99846.69;4926378;29;9612;-55
2020/12/26 04:00:06;;;;;;;;;21.50;14.00;;;;;1.85;88.74;99852.72;4933333;29;8840;-54
2020/12/26 04:02:34;;;;;;;;;24.00;13.75;;;;;2.00;88.22;99853.25;4932965;29;8882;-53
2020/12/26 04:05:01;;;;;;;;;21.75;14.75;;;;;1.74;87.84;99855.63;4937133;29;8857;-54
2020/12/26 04:07:27;;;;;;;;;23.50;17.25;;;;;1.79;88.22;99857.28;4933458;29;8864;-50
2020/12/26 04:09:54;;;;;;;;;17.75;11.00;;;;;1.87;88.28;99866.81;4936579;29;8906;-49
2020/12/26 04:12:21;;;;;;;;;19.75;17.25;;;;;1.68;88.77;99862.81;4937767;28;8894;-50
2020/12/26 04:14:48;;;;;;;;;17.00;15.00;;;;;1.80;87.71;99862.56;4941343;29;8861;-55
2020/12/26 04:17:15;;;;;;;;;16.50;14.25;;;;;2.05;87.12;99867.28;4937345;28;8865;-51
2020/12/26 04:19:41;;;;;;;;;21.75;15.00;;;;;2.09;87.88;99853.06;4936646;29;8871;-51
2020/12/26 04:22:08;;;;;;;;;15.50;13.00;;;;;1.93;85.11;99845.47;4941943;29;8894;-55
2020/12/26 04:24:36;;;;;;;;;17.00;12.25;;;;;2.41;82.16;99839.88;4935992;29;8939;-55
2020/12/26 04:27:03;;;;;;;;;10.50;9.50;;;;;2.40;81.12;99826.69;4936608;29;8923;-51
2020/12/26 04:29:33;;;;;;;;;12.50;10.00;;;;;2.37;80.98;99827.63;4935947;29;8868;-53
2020/12/26 04:32:00;;;;;;;;;13.50;9.00;;;;;2.28;81.79;99822.53;4936577;29;8893;-52
2020/12/26 04:34:27;;;;;;;;;18.25;9.25;;;;;2.30;81.83;99812.78;4938658;28;8860;-53
2020/12/26 04:36:54;;;;;;;;;13.75;10.00;;;;;2.38;81.44;99816.09;4940289;28;8861;-53
2020/12/26 04:39:21;;;;;;;;;18.75;12.00;;;;;2.47;81.42;99814.13;4939832;29;8875;-54
2020/12/26 04:41:48;;;;;;;;;36.50;21.00;;;;;2.22;82.24;99808.59;4936447;29;8934;-54
2020/12/26 04:44:17;;;;;;;;;22.75;18.00;;;;;2.36;82.91;99815.25;4936618;29;8863;-55
2020/12/26 04:46:47;;;;;;;;;24.25;10.50;;;;;2.26;82.50;99813.75;4935224;29;8889;-54
2020/12/26 04:49:14;;;;;;;;;19.00;13.50;;;;;2.18;83.71;99821.03;4922649;29;9559;-54
2020/12/26 04:51:42;;;;;;;;;47.50;34.25;;;;;2.22;83.71;99846.56;4926388;29;8879;-54
2020/12/26 04:54:33;;;;;;;;;66.25;38.25;;;;;1.95;84.52;99856.91;4936017;29;8872;-54
2020/12/26 04:57:02;;;;;;;;;48.00;37.00;;;;;1.77;85.29;99857.34;4935659;29;8910;-54
2020/12/26 04:59:29;;;;;;;;;38.50;28.75;;;;;1.88;84.84;99863.25;4918300;29;8872;-55
2020/12/26 05:01:57;;;;;;;;;35.75;18.75;;;;;1.69;84.88;99875.19;4935028;29;8861;-53
2020/12/26 05:04:24;;;;;;;;;28.00;18.75;;;;;1.48;85.70;99887.97;4925825;28;8875;-55
2020/12/26 05:06:53;;;;;;;;;39.00;26.50;;;;;1.58;85.78;99887.75;4935313;29;8892;-53
2020/12/26 05:09:22;;;;;;;;;17.00;11.50;;;;;1.34;87.03;99895.31;4947842;28;8864;-54
2020/12/26 05:12:00;;;;;;;;;24.50;20.75;;;;;1.20;87.38;99900.00;4935803;29;8904;-55
2020/12/26 05:14:31;;;;;;;;;18.00;15.25;;;;;1.33;87.25;99898.84;4922904;29;9583;-54
2020/12/26 05:17:00;;;;;;;;;19.25;16.75;;;;;1.24;87.35;99914.94;4935274;29;8894;-53
2020/12/26 05:19:27;;;;;;;;;18.50;12.00;;;;;1.17;88.78;99915.94;4918741;29;8878;-50
2020/12/26 05:21:57;;;;;;;;;27.25;16.75;;;;;1.12;89.00;99931.03;4934250;29;9830;-52
2020/12/26 05:24:24;;;;;;;;;28.75;23.75;;;;;1.31;88.08;99943.84;4935315;29;8868;-53
2020/12/26 05:26:53;;;;;;;;;18.50;13.50;;;;;1.19;87.68;99948.53;4941623;29;8883;-53
2020/12/26 05:29:24;;;;;;;;;17.00;11.50;;;;;1.41;88.21;99944.53;4960123;28;8872;-53
2020/12/26 05:31:53;;;;;;;;;19.50;12.50;;;;;1.29;87.06;99945.66;4934595;29;8864;-50
2020/12/26 05:34:31;;;;;;;;;25.25;13.50;;;;;1.50;88.11;99939.06;4937703;29;9534;-51
2020/12/26 05:37:00;;;;;;;;;20.00;10.00;;;;;1.62;86.15;99942.38;4939192;29;8896;-52
2020/12/26 05:39:33;;;;;;;;;19.50;12.75;;;;;1.64;85.44;99935.28;4926251;29;8868;-52
2020/12/26 05:42:01;;;;;;;;;18.25;12.75;;;;;1.89;83.46;99941.75;4935526;29;8910;-54
2020/12/26 05:44:31;;;;;;;;;17.00;15.25;;;;;1.64;84.83;99951.16;4935214;29;8857;-52
2020/12/26 05:47:01;;;;;;;;;18.00;14.00;;;;;1.52;85.76;99954.91;4933972;29;9006;-50
2020/12/26 05:49:35;;;;;;;;;22.50;10.50;;;;;1.38;86.77;99957.84;4934650;29;8887;-53
2020/12/26 05:52:14;;;;;;;;;18.25;14.50;;;;;1.25;86.99;99969.56;4934680;29;8882;-53
2020/12/26 05:54:52;;;;;;;;;23.50;11.00;;;;;1.45;86.86;99977.97;4935643;29;8857;-52
2020/12/26 05:57:20;;;;;;;;;15.50;12.00;;;;;1.39;87.31;99975.44;4928486;29;8881;-53
2020/12/26 05:59:51;;;;;;;;;24.25;21.25;;;;;1.30;87.22;99978.28;4920920;29;8870;-53
2020/12/26 06:02:28;;;;;;;;;26.50;19.50;;;;;1.24;87.32;99988.97;4933652;29;8851;-55
2020/12/26 06:05:05;;;;;;;;;108.00;79.00;;;;;1.24;87.57;99999.56;4936550;28;8943;-55
2020/12/26 06:07:37;;;;;;;;;177.75;114.25;;;;;1.23;88.07;100001.31;4939288;29;8973;-54
2020/12/26 06:10:07;;;;;;;;;102.00;76.00;;;;;1.24;87.71;100016.28;4935962;29;8879;-52
2020/12/26 06:12:34;;;;;;;;;67.00;49.50;;;;;1.16;87.69;100012.91;4937752;28;8881;-53
2020/12/26 06:15:02;;;;;;;;;41.25;25.50;;;;;1.05;88.45;100021.03;4935127;29;8867;-55
2020/12/26 06:17:34;;;;;;;;;27.00;17.00;;;;;1.00;89.30;100019.34;4935776;28;8891;-53
2020/12/26 06:20:02;;;;;;;;;23.50;13.50;;;;;1.03;88.11;100032.53;4936187;29;9653;-52
2020/12/26 06:22:51;;;;;;;;;26.50;20.50;;;;;0.70;89.20;100039.25;4935258;29;8915;-54
2020/12/26 06:25:22;;;;;;;;;20.50;18.75;;;;;0.65;89.15;100041.94;4941068;29;8869;-55
2020/12/26 06:27:52;;;;;;;;;16.50;14.50;;;;;0.70;89.36;100050.69;4942119;29;8992;-53
2020/12/26 06:30:20;;;;;;;;;18.50;15.75;;;;;1.07;89.93;100056.25;4942587;29;9628;-51
2020/12/26 06:32:50;;;;;;;;;32.50;20.00;;;;;1.26;88.18;100062.09;4941810;28;8911;-55
2020/12/26 06:35:19;;;;;;;;;46.75;35.00;;;;;1.19;88.13;100070.19;4936897;29;8894;-54
2020/12/26 06:38:14;;;;;;;;;61.00;42.50;;;;;1.39;87.66;100078.59;4941186;29;8887;-55
2020/12/26 06:40:52;;;;;;;;;43.25;32.00;;;;;1.34;86.65;100085.75;4941596;29;8861;-55
2020/12/26 06:43:52;;;;;;;;;69.00;43.50;;;;;1.52;85.17;100090.72;4942139;28;8866;-54
2020/12/26 06:46:21;;;;;;;;;45.75;39.50;;;;;1.51;85.11;100088.97;4908895;28;8908;-53
2020/12/26 06:48:53;;;;;;;;;44.00;29.50;;;;;1.52;84.11;100101.31;4938569;29;8884;-55
2020/12/26 06:51:33;;;;;;;;;26.25;20.25;;;;;1.68;84.72;100101.88;4940735;29;8852;-54
2020/12/26 06:54:07;;;;;;;;;23.75;21.00;;;;;1.63;83.96;100108.19;4940817;29;8872;-54
2020/12/26 06:56:36;;;;;;;;;33.50;30.00;;;;;1.61;84.99;100110.88;4927962;29;8895;-55
2020/12/26 06:59:08;;;;;;;;;67.50;55.25;;;;;1.74;83.57;100112.38;4944969;28;9626;-56
2020/12/26 07:01:41;;;;;;;;;31.25;29.75;;;;;1.77;83.58;100124.69;4944015;28;8889;-53
2020/12/26 07:04:10;;;;;;;;;43.00;27.75;;;;;1.62;85.04;100133.78;4943360;28;8862;-55
2020/12/26 07:06:53;;;;;;;;;29.50;24.50;;;;;1.66;86.04;100134.56;4933991;29;8868;-55
2020/12/26 07:09:44;;;;;;;;;36.00;26.00;;;;;1.63;84.79;100132.84;4941274;28;8880;-56
2020/12/26 07:12:13;;;;;;;;;30.75;25.75;;;;;1.73;84.21;100136.22;4934111;28;10060;-53
2020/12/26 07:14:45;;;;;;;;;33.50;26.25;;;;;1.77;83.05;100137.94;4934218;28;8865;-53
2020/12/26 07:17:15;;;;;;;;;30.25;19.00;;;;;1.74;82.08;100130.91;4939297;28;8920;-54
2020/12/26 07:19:48;;;;;;;;;77.75;53.75;;;;;1.83;81.76;100129.84;4943968;28;8984;-54
2020/12/26 07:22:20;;;;;;;;;91.00;68.50;;;;;1.93;82.62;100123.50;4939392;29;9631;-54
2020/12/26 07:25:11;;;;;;;;;103.25;71.50;;;;;1.95;81.14;100115.53;4937683;29;8861;-53
2020/12/26 07:27:40;;;;;;;;;53.25;30.75;;;;;2.01;81.77;100104.81;4920362;29;8886;-53
2020/12/26 07:30:19;;;;;;;;;81.00;59.50;;;;;1.94;81.74;100109.34;4942716;29;8866;-56
2020/12/26 07:32:50;;;;;;;;;46.00;36.50;;;;;1.98;81.05;100126.94;4934058;29;8865;-51
2020/12/26 07:35:20;;;;;;;;;45.50;33.75;;;;;1.94;80.39;100124.34;4946246;29;8866;-53
2020/12/26 07:38:03;;;;;;;;;33.50;26.00;;;;;1.92;81.27;100120.84;4938562;29;8891;-55
2020/12/26 07:40:39;;;;;;;;;25.00;18.25;;;;;2.10;80.66;100127.56;4941817;29;8904;-52
2020/12/26 07:43:15;;;;;;;;;25.00;14.50;;;;;1.80;81.10;100137.88;4942537;28;8884;-55
2020/12/26 07:45:45;;;;;;;;;29.50;17.75;;;;;2.03;81.13;100125.94;4937429;29;8865;-56
2020/12/26 07:48:13;;;;;;;;;25.50;20.25;;;;;2.20;78.46;100137.09;4942496;29;9009;-57
2020/12/26 07:50:42;;;;;;;;;24.25;20.50;;;;;2.11;78.68;100126.69;4951002;29;8884;-53
2020/12/26 07:53:13;;;;;;;;;22.25;18.00;;;;;2.21;79.53;100128.22;4955897;28;8963;-50
2020/12/26 07:55:40;;;;;;;;;27.25;19.50;;;;;2.20;79.17;100129.13;4943254;29;8852;-53
2020/12/26 07:58:16;;;;;;;;;17.00;13.00;;;;;2.27;78.86;100125.47;4927741;28;8868;-54
2020/12/26 08:00:45;;;;;;;;;16.00;14.00;;;;;2.17;78.38;100131.84;4936318;28;8834;-54
2020/12/26 08:03:14;;;;;;;;;11.00;7.50;;;;;2.30;78.84;100128.06;4948967;28;8901;-55
2020/12/26 08:05:48;;;;;;;;;13.75;10.00;;;;;2.27;77.32;100128.13;4940871;29;8900;-55
2020/12/26 08:08:19;;;;;;;;;14.00;10.00;;;;;2.34;77.91;100128.84;4942117;28;8900;-52
2020/12/26 08:10:46;;;;;;;;;12.25;9.00;;;;;2.29;76.10;100134.28;4943019;29;8867;-56
2020/12/26 08:13:17;;;;;;;;;13.50;10.25;;;;;2.19;76.47;100149.47;4941524;28;8975;-54
2020/12/26 08:15:44;;;;;;;;;13.75;9.25;;;;;2.32;74.80;100150.09;4943928;29;8869;-55
2020/12/26 08:18:12;;;;;;;;;9.50;8.00;;;;;2.27;75.20;100154.63;4944245;28;8881;-53
2020/12/26 08:20:39;;;;;;;;;9.50;7.50;;;;;2.25;76.28;100167.00;4953769;28;8935;-55
2020/12/26 08:23:12;;;;;;;;;6.00;4.00;;;;;2.25;74.09;100161.72;4941018;29;8940;-52
2020/12/26 08:25:39;;;;;;;;;12.50;8.75;;;;;2.30;73.23;100162.50;4936739;29;8869;-52
2020/12/26 08:28:10;;;;;;;;;14.00;9.00;;;;;2.56;72.89;100161.09;4926797;29;8881;-54
2020/12/26 08:30:38;;;;;;;;;8.50;8.25;;;;;2.54;72.59;100158.47;4928172;28;8854;-52
2020/12/26 08:33:29;;;;;;;;;11.50;7.75;;;;;2.51;71.92;100173.56;4918816;29;8860;-55
2020/12/26 08:36:23;;;;;;;;;35.75;24.50;;;;;2.48;71.89;100181.59;4920342;29;8885;-55
2020/12/26 08:38:59;;;;;;;;;23.50;18.00;;;;;2.52;71.56;100196.50;4934919;29;8875;-54
2020/12/26 08:41:28;;;;;;;;;46.75;32.50;;;;;2.57;71.75;100195.50;4922303;29;8888;-56
2020/12/26 08:43:55;;;;;;;;;16.25;10.50;;;;;2.72;70.04;100196.09;4938517;29;8849;-55
2020/12/26 08:46:25;;;;;;;;;12.25;7.00;;;;;2.78;70.80;100199.47;4934048;29;8859;-55
2020/12/26 08:48:55;;;;;;;;;19.00;12.50;;;;;2.58;69.97;100220.22;4934036;29;8876;-52
2020/12/26 08:51:25;;;;;;;;;19.50;10.75;;;;;2.78;69.66;100215.38;4935846;29;8864;-54
2020/12/26 08:53:57;;;;;;;;;14.75;9.75;;;;;2.95;70.40;100227.41;4937616;29;8893;-54
2020/12/26 08:56:39;;;;;;;;;17.00;15.00;;;;;2.84;69.50;100236.50;4918292;29;8879;-54
2020/12/26 08:59:06;;;;;;;;;21.25;13.50;;;;;2.97;69.84;100241.50;4953127;28;8975;-54
2020/12/26 09:01:35;;;;;;;;;22.50;22.00;;;;;2.96;70.60;100239.78;4941008;29;8873;-55
2020/12/26 09:04:03;;;;;;;;;20.25;13.00;;;;;3.07;69.16;100245.72;4929405;28;8868;-51
2020/12/26 09:06:43;;;;;;;;;8.33;7.67;;;;;2.81;68.55;100244.47;4933759;29;8870;-52
2020/12/26 09:09:18;;;;;;;;;18.25;12.50;;;;;2.96;68.77;100245.09;4918503;29;8857;-51
2020/12/26 09:11:57;;;;;;;;;11.00;10.00;;;;;2.92;68.28;100252.22;4957381;28;8876;-54
2020/12/26 09:14:24;;;;;;;;;16.50;11.75;;;;;2.82;67.77;100243.59;4926348;28;8874;-54
2020/12/26 09:17:08;;;;;;;;;17.00;13.00;;;;;3.15;68.75;100241.09;4937975;28;9053;-54
2020/12/26 09:19:44;;;;;;;;;14.00;13.00;;;;;3.16;70.78;100232.25;4934832;29;8853;-55
2020/12/26 09:22:12;;;;;;;;;8.67;4.33;;;;;3.04;68.94;100237.81;4927662;28;8860;-56
2020/12/26 09:24:40;;;;;;;;;11.00;9.33;;;;;2.99;67.01;100235.28;4955017;28;8990;-55
2020/12/26 09:27:21;;;;;;;;;7.33;5.33;;;;;2.88;66.24;100223.16;4933908;29;8989;-55
2020/12/26 09:29:51;;;;;;;;;9.67;6.33;;;;;2.96;67.47;100210.59;4950149;28;8876;-55
2020/12/26 09:32:18;;;;;;;;;7.00;5.00;;;;;3.09;66.31;100204.13;4919093;28;8970;-54
2020/12/26 09:34:45;;;;;;;;;4.00;4.00;;;;;3.27;67.16;100203.69;4937551;28;8880;-52
2020/12/26 09:37:12;;;;;;;;;4.33;4.33;;;;;3.15;67.29;100203.97;4932631;29;8903;-57
2020/12/26 09:39:39;;;;;;;;;5.00;4.00;;;;;3.08;67.41;100195.28;4934940;29;8903;-57
2020/12/26 09:42:06;;;;;;;;;3.33;3.33;;;;;3.02;65.87;100202.50;4934144;29;8900;-58
2020/12/26 09:44:33;;;;;;;;;5.67;4.00;;;;;3.33;66.45;100212.41;4936073;28;8868;-58
2020/12/26 09:47:04;;;;;;;;;4.00;4.00;;;;;3.27;65.58;100202.81;4936326;28;8851;-56
2020/12/26 09:49:31;;;;;;;;;13.33;2.00;;;;;3.46;65.86;100203.25;4938173;29;8873;-57
2020/12/26 09:51:58;;;;;;;;;12.33;10.33;;;;;3.18;66.68;100193.28;4934011;29;8856;-56
2020/12/26 09:54:25;;;;;;;;;5.00;5.00;;;;;3.40;67.27;100183.03;4921167;28;9645;-58
2020/12/26 09:56:55;;;;;;;;;8.00;7.00;;;;;3.36;66.19;100185.81;4935415;28;8910;-57
2020/12/26 09:59:22;;;;;;;;;8.00;5.00;;;;;3.36;66.37;100207.91;4933459;29;8898;-56
2020/12/26 10:01:48;;;;;;;;;5.67;4.00;;;;;3.39;65.47;100213.13;4933728;29;8875;-55
2020/12/26 10:04:16;;;;;;;;;10.00;4.00;;;;;3.40;66.34;100219.34;4933547;29;8967;-57
2020/12/26 10:06:44;;;;;;;;;10.00;7.00;;;;;3.36;64.90;100218.50;4933482;29;9592;-57
2020/12/26 10:09:11;;;;;;;;;8.00;4.00;;;;;3.36;64.63;100233.56;4933692;29;8871;-59
2020/12/26 10:11:38;;;;;;;;;5.00;4.00;;;;;3.19;64.49;100232.19;4933974;29;8870;-57
2020/12/26 10:14:05;;;;;;;;;10.00;7.00;;;;;3.15;65.16;100226.97;4933681;29;8873;-58
2020/12/26 10:16:32;;;;;;;;;9.67;6.33;;;;;3.02;65.15;100247.59;4918619;29;8892;-56
2020/12/26 10:19:00;;;;;;;;;4.00;3.33;;;;;2.90;63.93;100250.50;4933679;28;9008;-59
2020/12/26 10:21:27;;;;;;;;;7.67;7.67;;;;;3.08;65.17;100258.06;4933331;29;8866;-58
2020/12/26 10:23:54;;;;;;;;;5.00;2.67;;;;;3.32;65.61;100269.03;4942950;28;8882;-58
2020/12/26 10:26:21;;;;;;;;;7.00;5.67;;;;;3.36;64.05;100253.03;4940897;29;8889;-58
2020/12/26 10:28:48;;;;;;;;;4.33;4.33;;;;;3.69;64.66;100251.34;4940711;29;8864;-58
2020/12/26 10:31:14;;;;;;;;;10.00;8.00;;;;;3.67;65.04;100261.13;4940141;28;8878;-57
2020/12/26 10:33:43;;;;;;;;;10.67;5.67;;;;;3.52;63.96;100256.19;4940679;29;8869;-57
2020/12/26 10:36:10;;;;;;;;;12.00;11.67;;;;;3.30;63.93;100264.66;4933460;28;9629;-57
2020/12/26 10:38:37;;;;;;;;;12.33;10.00;;;;;3.45;63.10;100259.88;4936399;28;8906;-55
2020/12/26 10:41:06;;;;;;;;;10.33;9.33;;;;;3.49;65.43;100265.09;4939172;28;8887;-57
2020/12/26 10:43:34;;;;;;;;;8.00;7.33;;;;;3.42;65.21;100255.56;4921870;29;8907;-57
2020/12/26 10:46:01;;;;;;;;;7.00;5.00;;;;;3.21;64.35;100261.31;4940120;28;8877;-55
2020/12/26 10:48:28;;;;;;;;;5.00;5.00;;;;;2.97;63.74;100268.03;4942014;29;8976;-59
2020/12/26 10:50:55;;;;;;;;;7.00;7.00;;;;;3.14;64.86;100265.91;4940458;29;8939;-59
2020/12/26 10:53:21;;;;;;;;;17.33;13.33;;;;;3.17;64.91;100263.19;4941938;28;8891;-58
2020/12/26 10:56:06;;;;;;;;;23.00;17.25;;;;;3.16;64.55;100266.75;4944447;28;8842;-58
2020/12/26 10:58:33;;;;;;;;;47.25;32.50;;;;;3.29;64.88;100265.56;4945008;29;8885;-57
2020/12/26 11:01:00;;;;;;;;;38.00;25.50;;;;;3.01;63.78;100244.06;4934061;29;9570;-56
2020/12/26 11:03:26;;;;;;;;;19.00;13.50;;;;;2.97;63.60;100241.50;4941310;28;8892;-58
2020/12/26 11:05:53;;;;;;;;;9.33;5.00;;;;;3.09;63.41;100238.59;4937529;28;8853;-56
2020/12/26 11:08:20;;;;;;;;;16.00;13.33;;;;;3.13;63.41;100236.75;4935955;28;8976;-56
2020/12/26 11:10:47;;;;;;;;;18.00;15.00;;;;;3.40;63.78;100240.56;4942862;28;8870;-57
2020/12/26 11:13:14;;;;;;;;;10.33;8.00;;;;;3.39;63.57;100246.75;4942275;28;8889;-57
2020/12/26 11:15:41;;;;;;;;;8.67;7.00;;;;;3.21;63.26;100256.00;4940262;28;9000;-59
2020/12/26 11:18:08;;;;;;;;;18.50;14.00;;;;;3.29;63.76;100264.66;4939114;29;8862;-59
2020/12/26 11:20:35;;;;;;;;;36.75;26.25;;;;;3.33;63.44;100269.00;4940193;29;8881;-58
2020/12/26 11:23:01;;;;;;;;;10.33;7.00;;;;;3.40;62.12;100267.13;4944591;29;8867;-59
2020/12/26 11:25:28;;;;;;;;;8.67;4.00;;;;;3.48;62.60;100273.13;4925100;29;8862;-57
2020/12/26 11:27:55;;;;;;;;;19.33;12.33;;;;;3.60;61.64;100282.56;4933347;29;8880;-57
2020/12/26 11:30:22;;;;;;;;;10.00;8.67;;;;;3.70;62.83;100281.44;4923848;29;8896;-58
2020/12/26 11:32:49;;;;;;;;;13.00;12.33;;;;;3.66;65.80;100280.66;4943261;29;8858;-57
2020/12/26 11:35:16;;;;;;;;;9.33;5.00;;;;;3.54;62.03;100280.06;4943502;28;8957;-57
2020/12/26 11:37:43;;;;;;;;;4.00;4.00;;;;;3.58;62.24;100277.31;4940727;29;8911;-57
2020/12/26 11:40:09;;;;;;;;;19.67;14.67;;;;;3.61;62.58;100277.22;4943773;29;8846;-57
2020/12/26 11:42:39;;;;;;;;;12.33;11.00;;;;;3.85;63.39;100282.84;4941031;29;8992;-58